createdAt,value
2018-03-21T00:01:23.557Z,5.63
2018-03-21T00:03:51.238Z,4.57
2018-03-21T00:06:19.588Z,4.77
2018-03-21T00:08:47.537Z,4.63
2018-03-21T00:11:15.104Z,4.30
2018-03-21T00:13:43.282Z,4.30
2018-03-21T00:16:11.215Z,4.97
2018-03-21T00:18:38.884Z,5.23
2018-03-21T00:21:06.633Z,4.40
2018-03-21T00:23:34.333Z,3.57
2018-03-21T00:26:02.142Z,3.87
2018-03-21T00:28:29.824Z,3.37
2018-03-21T00:30:57.730Z,3.50
2018-03-21T00:33:25.285Z,4.03
2018-03-21T00:35:53.028Z,4.50
2018-03-21T00:38:20.823Z,4.77
2018-03-21T00:40:48.495Z,4.33
2018-03-21T00:43:16.027Z,3.80
2018-03-21T00:45:43.607Z,4.53
2018-03-21T00:48:11.251Z,4.00
2018-03-21T00:50:38.816Z,3.77
2018-03-21T00:53:06.785Z,3.63
2018-03-21T00:55:34.430Z,3.57
2018-03-21T00:58:02.087Z,4.23
2018-03-21T01:00:29.712Z,3.33
2018-03-21T01:02:58.058Z,5.10
2018-03-21T01:05:25.744Z,4.43
2018-03-21T01:07:53.640Z,3.63
2018-03-21T01:10:21.312Z,3.80
2018-03-21T01:12:49.015Z,4.20
2018-03-21T01:15:16.899Z,3.63
2018-03-21T01:17:44.741Z,3.03
2018-03-21T01:20:12.512Z,3.43
2018-03-21T01:22:40.911Z,3.67
2018-03-21T01:25:09.403Z,3.93
2018-03-21T01:27:37.976Z,3.83
2018-03-21T01:30:05.808Z,3.37
2018-03-21T01:32:33.475Z,3.40
2018-03-21T01:35:01.207Z,3.27
2018-03-21T01:37:28.887Z,2.90
2018-03-21T01:39:56.875Z,3.33
2018-03-21T01:42:24.440Z,3.40
2018-03-21T01:44:52.080Z,3.37
2018-03-21T01:47:19.760Z,3.20
2018-03-21T01:49:47.464Z,3.40
2018-03-21T01:52:16.199Z,3.87
2018-03-21T01:54:43.873Z,3.03
2018-03-21T01:57:11.515Z,3.20
2018-03-21T01:59:39.090Z,3.93
2018-03-21T02:02:06.791Z,4.83
2018-03-21T02:04:34.692Z,4.17
2018-03-21T02:07:02.383Z,4.03
2018-03-21T02:09:30.135Z,3.30
2018-03-21T02:11:58.131Z,2.67
2018-03-21T02:14:26.628Z,4.07
2018-03-21T02:16:55.078Z,3.83
2018-03-21T02:19:22.712Z,2.97
2018-03-21T02:21:50.546Z,3.10
2018-03-21T02:24:18.503Z,3.30
2018-03-21T02:26:46.420Z,3.40
2018-03-21T02:29:14.100Z,3.07
2018-03-21T02:31:41.656Z,3.70
2018-03-21T02:34:09.318Z,3.00
2018-03-21T02:36:37.293Z,3.17
2018-03-21T02:39:04.829Z,2.83
2018-03-21T02:41:32.512Z,2.60
2018-03-21T02:44:00.205Z,4.23
2018-03-21T02:46:27.742Z,3.63
2018-03-21T02:48:55.422Z,3.53
2018-03-21T02:51:23.914Z,3.57
2018-03-21T02:53:52.386Z,3.20
2018-03-21T02:56:20.216Z,4.83
2018-03-21T02:58:47.891Z,3.10
2018-03-21T03:01:15.663Z,3.73
2018-03-21T03:03:43.696Z,3.00
2018-03-21T03:06:11.364Z,2.87
2018-03-21T03:08:39.036Z,3.97
2018-03-21T03:11:06.723Z,3.80
2018-03-21T03:13:34.473Z,3.87
2018-03-21T03:16:02.559Z,3.20
2018-03-21T03:18:30.187Z,2.97
2018-03-21T03:20:57.841Z,4.17
2018-03-21T03:23:25.416Z,2.77
2018-03-21T03:25:53.212Z,2.47
2018-03-21T03:28:20.829Z,2.97
2018-03-21T03:30:48.726Z,2.87
2018-03-21T03:33:16.411Z,3.93
2018-03-21T03:35:44.077Z,2.97
2018-03-21T03:38:12.552Z,2.70
2018-03-21T03:40:40.305Z,3.33
2018-03-21T03:43:08.223Z,2.50
2018-03-21T03:45:35.834Z,2.50
2018-03-21T03:48:04.285Z,2.87
2018-03-21T03:50:32.064Z,2.73
2018-03-21T03:52:59.703Z,2.63
2018-03-21T03:55:27.259Z,2.73
2018-03-21T03:57:54.932Z,3.60
2018-03-21T04:00:22.526Z,3.13
2018-03-21T04:02:50.291Z,2.67
2018-03-21T04:05:17.900Z,2.87
2018-03-21T04:07:45.556Z,4.47
2018-03-21T04:10:13.377Z,2.80
2018-03-21T04:12:41.038Z,3.40
2018-03-21T04:15:08.677Z,3.07
2018-03-21T04:17:36.240Z,2.53
2018-03-21T04:20:03.914Z,3.00
2018-03-21T04:22:31.523Z,3.13
2018-03-21T04:24:59.427Z,3.10
2018-03-21T04:27:27.123Z,2.83
2018-03-21T04:29:54.770Z,2.60
2018-03-21T04:32:22.656Z,2.70
2018-03-21T04:34:50.398Z,2.70
2018-03-21T04:37:18.038Z,3.83
2018-03-21T04:39:45.658Z,2.40
2018-03-21T04:42:14.003Z,3.90
2018-03-21T04:44:41.704Z,3.50
2018-03-21T04:47:09.982Z,4.60
2018-03-21T04:49:38.258Z,3.07
2018-03-21T04:52:06.659Z,3.97
2018-03-21T04:54:34.423Z,2.93
2018-03-21T04:57:02.152Z,4.60
2018-03-21T04:59:30.467Z,7.20
2018-03-21T05:01:58.143Z,3.90
2018-03-21T05:04:25.784Z,4.50
2018-03-21T05:06:53.306Z,3.23
2018-03-21T05:09:21.027Z,8.27
2018-03-21T05:11:48.560Z,4.20
2018-03-21T05:14:16.301Z,4.03
2018-03-21T05:16:44.783Z,6.90
2018-03-21T05:19:13.175Z,6.57
2018-03-21T05:21:40.951Z,4.03
2018-03-21T05:24:08.591Z,4.53
2018-03-21T05:26:36.147Z,4.20
2018-03-21T05:29:03.794Z,8.40
2018-03-21T05:31:31.463Z,3.23
2018-03-21T05:33:59.815Z,5.67
2018-03-21T05:36:27.530Z,5.47
2018-03-21T05:38:55.068Z,4.40
2018-03-21T05:41:23.552Z,4.50
2018-03-21T05:43:51.831Z,6.80
2018-03-21T05:46:19.484Z,2.90
2018-03-21T05:48:48.156Z,2.53
2018-03-21T05:51:16.220Z,3.27
2018-03-21T05:53:43.830Z,3.03
2018-03-21T05:56:11.356Z,2.87
2018-03-21T05:58:39.660Z,3.80
2018-03-21T06:01:07.189Z,3.80
2018-03-21T06:03:35.686Z,4.77
2018-03-21T06:06:03.597Z,2.50
2018-03-21T06:08:31.291Z,2.33
2018-03-21T06:10:59.738Z,2.60
2018-03-21T06:13:27.499Z,2.40
2018-03-21T06:15:55.175Z,2.83
2018-03-21T06:18:22.715Z,3.87
2018-03-21T06:20:50.246Z,3.10
2018-03-21T06:23:17.918Z,5.30
2018-03-21T06:25:45.587Z,2.73
2018-03-21T06:28:13.255Z,3.43
2018-03-21T06:30:40.955Z,2.80
2018-03-21T06:33:09.320Z,2.73
2018-03-21T06:35:37.691Z,4.40
2018-03-21T06:38:05.325Z,2.70
2018-03-21T06:40:32.845Z,3.97
2018-03-21T06:43:01.289Z,2.90
2018-03-21T06:45:29.394Z,2.70
2018-03-21T06:47:57.801Z,3.17
2018-03-21T06:50:25.601Z,2.33
2018-03-21T06:52:53.129Z,2.93
2018-03-21T06:55:20.694Z,2.47
2018-03-21T06:57:48.216Z,4.93
2018-03-21T07:00:15.734Z,3.30
2018-03-21T07:02:43.508Z,7.80
2018-03-21T07:05:11.071Z,4.37
2018-03-21T07:07:38.836Z,9.70
2018-03-21T07:10:06.479Z,2.90
2018-03-21T07:12:34.356Z,3.27
2018-03-21T07:15:13.773Z,3.27
2018-03-21T07:17:41.789Z,3.30
2018-03-21T07:20:09.806Z,3.13
2018-03-21T07:22:37.422Z,4.17
2018-03-21T07:25:04.967Z,2.90
2018-03-21T07:27:32.561Z,2.97
2018-03-21T07:30:00.703Z,3.20
2018-03-21T07:32:28.271Z,3.77
2018-03-21T07:34:55.950Z,4.40
2018-03-21T07:37:24.293Z,4.40
2018-03-21T07:39:51.819Z,3.23
2018-03-21T07:45:31.816Z,2.67
2018-03-21T07:47:59.391Z,4.87
2018-03-21T07:50:26.945Z,4.13
2018-03-21T07:52:54.858Z,5.17
2018-03-21T07:55:23.328Z,3.60
2018-03-21T07:57:51.807Z,2.90
2018-03-21T08:00:19.612Z,4.10
2018-03-21T08:02:47.293Z,2.97
2018-03-21T08:05:14.896Z,3.30
2018-03-21T08:07:43.184Z,4.43
2018-03-21T08:10:10.971Z,3.93
2018-03-21T08:12:38.705Z,3.17
2018-03-21T08:15:07.219Z,3.10
2018-03-21T08:17:34.859Z,2.50
2018-03-21T08:20:02.554Z,2.67
2018-03-21T08:22:30.261Z,2.90
2018-03-21T08:24:57.903Z,2.40
2018-03-21T08:27:25.512Z,3.13
2018-03-21T08:29:53.147Z,3.63
2018-03-21T08:32:21.574Z,3.37
2018-03-21T08:34:49.279Z,2.93
2018-03-21T08:37:16.964Z,2.63
2018-03-21T08:39:45.699Z,3.33
2018-03-21T08:42:13.943Z,4.67
2018-03-21T08:44:41.764Z,2.90
2018-03-21T08:47:09.291Z,2.83
2018-03-21T08:49:36.852Z,2.57
2018-03-21T08:52:04.510Z,3.10
2018-03-21T08:57:44.338Z,2.60
2018-03-21T09:00:12.678Z,2.43
2018-03-21T09:02:40.367Z,2.23
2018-03-21T09:05:08.914Z,3.47
2018-03-21T09:07:36.761Z,2.50
2018-03-21T09:10:04.426Z,2.30
2018-03-21T09:12:32.104Z,2.67
2018-03-21T09:14:59.724Z,4.33
2018-03-21T09:17:27.485Z,2.30
2018-03-21T09:19:55.218Z,3.07
2018-03-21T09:22:23.663Z,2.67
2018-03-21T09:24:51.363Z,2.20
2018-03-21T09:27:19.784Z,2.50
2018-03-21T09:29:47.416Z,2.40
2018-03-21T09:32:15.964Z,4.93
2018-03-21T09:34:43.552Z,3.60
2018-03-21T09:37:11.500Z,2.80
2018-03-21T09:39:39.184Z,2.67
2018-03-21T09:42:07.637Z,3.03
2018-03-21T09:44:35.303Z,2.83
2018-03-21T09:47:03.036Z,2.33
2018-03-21T09:49:30.858Z,2.33
2018-03-21T09:51:58.564Z,2.80
2018-03-21T09:54:26.183Z,4.47
2018-03-21T09:56:54.966Z,2.63
2018-03-21T09:59:23.544Z,2.50
2018-03-21T10:01:51.116Z,2.87
2018-03-21T10:04:18.700Z,2.57
2018-03-21T10:06:46.415Z,2.77
2018-03-21T10:09:14.099Z,2.00
2018-03-21T10:11:43.054Z,2.30
2018-03-21T10:14:10.799Z,3.10
2018-03-21T10:16:38.612Z,2.53
2018-03-21T10:19:07.029Z,2.83
2018-03-21T10:21:34.652Z,2.47
2018-03-21T10:24:02.997Z,2.63
2018-03-21T10:26:30.723Z,2.17
2018-03-21T10:28:58.317Z,2.30
2018-03-21T10:31:25.907Z,2.67
2018-03-21T10:33:53.616Z,2.40
2018-03-21T10:36:21.229Z,4.87
2018-03-21T10:38:48.810Z,3.53
2018-03-21T10:41:16.509Z,2.10
2018-03-21T10:43:44.172Z,4.03
2018-03-21T10:46:11.704Z,1.80
2018-03-21T10:48:39.396Z,2.77
2018-03-21T10:51:07.180Z,2.63
2018-03-21T10:53:34.851Z,1.80
2018-03-21T10:56:02.460Z,1.67
2018-03-21T10:58:30.098Z,3.73
2018-03-21T11:00:58.754Z,2.00
2018-03-21T11:03:26.265Z,1.80
2018-03-21T11:05:54.427Z,1.67
2018-03-21T11:08:22.063Z,2.07
2018-03-21T11:10:50.741Z,1.90
2018-03-21T11:13:19.222Z,2.53
2018-03-21T11:15:47.047Z,1.70
2018-03-21T11:18:14.741Z,1.83
2018-03-21T11:20:42.588Z,2.23
2018-03-21T11:23:10.295Z,1.67
2018-03-21T11:25:38.615Z,1.60
2018-03-21T11:28:06.174Z,2.93
2018-03-21T11:30:33.912Z,1.80
2018-03-21T11:33:01.631Z,1.40
2018-03-21T11:35:29.303Z,1.70
2018-03-21T11:37:57.708Z,2.00
2018-03-21T11:40:25.577Z,1.40
2018-03-21T11:42:53.206Z,1.70
2018-03-21T11:45:20.791Z,2.80
2018-03-21T11:47:49.124Z,1.67
2018-03-21T11:50:16.803Z,1.57
2018-03-21T11:52:44.336Z,1.70
2018-03-21T11:55:12.021Z,2.23
2018-03-21T11:57:39.959Z,1.60
2018-03-21T12:00:07.648Z,1.90
2018-03-21T12:02:36.331Z,1.57
2018-03-21T12:05:03.908Z,1.60
2018-03-21T12:07:31.535Z,2.10
2018-03-21T12:09:59.520Z,1.50
2018-03-21T12:12:27.138Z,1.70
2018-03-21T12:14:54.879Z,1.63
2018-03-21T12:17:22.547Z,1.97
2018-03-21T12:19:50.618Z,1.40
2018-03-21T12:22:18.617Z,1.57
2018-03-21T12:24:46.335Z,1.50
2018-03-21T12:27:13.877Z,1.40
2018-03-21T12:29:42.238Z,1.50
2018-03-21T12:32:10.094Z,1.30
2018-03-21T12:34:37.967Z,1.30
2018-03-21T12:37:05.599Z,1.20
2018-03-21T12:39:33.448Z,2.07
2018-03-21T12:42:01.126Z,1.43
2018-03-21T12:44:28.873Z,2.00
2018-03-21T12:46:56.583Z,1.23
2018-03-21T12:49:24.108Z,1.60
2018-03-21T12:51:51.773Z,2.17
2018-03-21T12:54:19.395Z,1.87
2018-03-21T12:56:47.844Z,2.40
2018-03-21T12:59:15.575Z,1.53
2018-03-21T13:01:43.303Z,1.20
2018-03-21T13:04:11.730Z,1.60
2018-03-21T13:06:39.376Z,1.10
2018-03-21T13:12:06.244Z,2.10
2018-03-21T13:14:33.915Z,1.03
2018-03-21T13:17:01.680Z,2.23
2018-03-21T13:19:29.337Z,1.20
2018-03-21T13:21:57.147Z,1.50
2018-03-21T13:24:24.828Z,1.40
2018-03-21T13:26:53.301Z,2.23
2018-03-21T13:29:21.712Z,1.20
2018-03-21T13:31:49.280Z,2.27
2018-03-21T13:34:17.512Z,2.93
2018-03-21T13:36:45.149Z,3.00
2018-03-21T13:39:12.832Z,3.67
2018-03-21T13:41:41.338Z,2.40
2018-03-21T13:44:09.127Z,4.53
2018-03-21T13:46:36.926Z,3.80
2018-03-21T13:49:04.751Z,4.43
2018-03-21T13:51:32.407Z,6.57
2018-03-21T13:54:00.067Z,4.23
2018-03-21T13:56:27.675Z,3.50
2018-03-21T13:58:55.850Z,5.93
2018-03-21T14:01:24.148Z,5.27
2018-03-21T14:03:52.447Z,7.83
2018-03-21T14:06:20.205Z,5.57
2018-03-21T14:08:47.916Z,7.13
2018-03-21T14:11:15.532Z,5.63
2018-03-21T14:13:43.107Z,5.80
2018-03-21T14:16:10.995Z,5.87
2018-03-21T14:18:38.821Z,6.20
2018-03-21T14:21:07.647Z,4.83
2018-03-21T14:23:35.312Z,7.93
2018-03-21T14:26:02.953Z,5.83
2018-03-21T14:28:30.594Z,7.30
2018-03-21T14:30:58.420Z,6.13
2018-03-21T14:33:26.035Z,6.00
2018-03-21T14:35:53.667Z,4.97
2018-03-21T14:38:21.298Z,8.00
2018-03-21T14:40:48.871Z,4.90
2018-03-21T14:46:13.043Z,6.63
2018-03-21T14:48:40.585Z,5.77
2018-03-21T14:51:08.277Z,4.77
2018-03-21T14:53:35.823Z,5.10
2018-03-21T14:56:03.470Z,4.57
2018-03-21T14:58:31.124Z,5.87
2018-03-21T15:00:58.683Z,7.43
2018-03-21T15:03:27.873Z,6.67
2018-03-21T15:05:55.504Z,7.70
2018-03-21T15:08:24.288Z,6.93
2018-03-21T15:10:51.855Z,5.63
2018-03-21T15:13:20.169Z,5.23
2018-03-21T15:15:47.854Z,6.43
2018-03-21T15:18:16.160Z,5.50
2018-03-21T15:20:44.718Z,5.63
2018-03-21T15:23:13.139Z,6.13
2018-03-21T15:25:40.668Z,4.50
2018-03-21T15:28:09.130Z,4.63
2018-03-21T15:30:36.800Z,5.37
2018-03-21T15:33:04.319Z,4.07
2018-03-21T15:35:31.871Z,6.03
2018-03-21T15:37:59.696Z,4.53
2018-03-21T15:40:28.166Z,4.13
2018-03-21T15:42:56.007Z,4.53
2018-03-21T15:45:23.591Z,4.03
2018-03-21T15:47:51.121Z,4.20
2018-03-21T15:50:18.869Z,3.90
2018-03-21T15:52:46.476Z,4.53
2018-03-21T15:55:14.023Z,4.97
2018-03-21T15:57:41.627Z,3.53
2018-03-21T16:00:09.428Z,4.23
2018-03-21T16:02:37.650Z,4.47
2018-03-21T16:05:06.197Z,3.87
2018-03-21T16:07:33.868Z,4.07
2018-03-21T16:10:02.880Z,4.13
2018-03-21T16:12:31.351Z,4.47
2018-03-21T16:14:59.805Z,3.20
2018-03-21T16:17:27.416Z,3.80
2018-03-21T16:19:54.992Z,2.83
2018-03-21T16:22:22.705Z,6.27
2018-03-21T16:24:50.496Z,5.83
2018-03-21T16:27:19.349Z,3.60
2018-03-21T16:29:46.964Z,3.70
2018-03-21T16:32:15.180Z,3.10
2018-03-21T16:34:42.780Z,3.73
2018-03-21T16:37:11.116Z,2.97
2018-03-21T16:39:39.376Z,3.73
2018-03-21T16:42:20.759Z,4.40
2018-03-21T16:44:48.335Z,3.60
2018-03-21T16:47:15.891Z,4.43
2018-03-21T16:49:43.655Z,3.10
2018-03-21T16:52:11.789Z,2.53
2018-03-21T16:54:40.426Z,4.07
2018-03-21T16:57:14.957Z,3.47
2018-03-21T16:59:42.921Z,2.83
2018-03-21T17:02:10.570Z,4.33
2018-03-21T17:04:38.304Z,3.00
2018-03-21T17:07:06.132Z,2.97
2018-03-21T17:09:33.935Z,4.17
2018-03-21T17:12:01.483Z,3.37
2018-03-21T17:14:29.006Z,2.93
2018-03-21T17:16:57.396Z,3.77
2018-03-21T17:19:25.715Z,3.10
2018-03-21T17:21:53.275Z,3.70
2018-03-21T17:24:21.232Z,2.43
2018-03-21T17:26:48.863Z,1.80
2018-03-21T17:29:17.206Z,3.20
2018-03-21T17:31:57.628Z,1.40
2018-03-21T17:34:25.367Z,1.40
2018-03-21T17:36:53.188Z,1.93
2018-03-21T17:39:20.872Z,2.37
2018-03-21T17:41:48.390Z,2.13
2018-03-21T17:44:16.238Z,2.40
2018-03-21T17:46:43.920Z,1.83
2018-03-21T17:49:11.485Z,2.23
2018-03-21T17:51:39.339Z,4.20
2018-03-21T17:54:06.943Z,3.20
2018-03-21T17:56:34.816Z,3.10
2018-03-21T17:59:03.217Z,4.63
2018-03-21T18:01:30.771Z,3.27
2018-03-21T18:03:58.491Z,3.23
2018-03-21T18:06:26.210Z,2.17
2018-03-21T18:08:54.227Z,2.90
2018-03-21T18:11:21.903Z,3.00
2018-03-21T18:13:49.568Z,2.30
2018-03-21T18:16:17.266Z,2.13
2018-03-21T18:18:45.573Z,3.03
2018-03-21T18:21:14.122Z,2.33
2018-03-21T18:23:41.777Z,2.67
2018-03-21T18:26:09.864Z,3.33
2018-03-21T18:28:37.947Z,1.77
2018-03-21T18:31:06.337Z,2.33
2018-03-21T18:33:33.980Z,4.67
2018-03-21T18:36:01.993Z,2.90
2018-03-21T18:38:29.866Z,3.27
2018-03-21T18:40:57.528Z,4.50
2018-03-21T18:43:25.645Z,1.57
2018-03-21T18:45:53.803Z,1.93
2018-03-21T18:48:21.458Z,2.53
2018-03-21T18:50:49.303Z,2.13
2018-03-21T18:53:20.831Z,3.20
2018-03-21T18:55:48.924Z,2.03
2018-03-21T18:58:16.854Z,1.83
2018-03-21T19:00:44.818Z,2.33
2018-03-21T19:03:12.423Z,1.57
2018-03-21T19:05:40.063Z,2.13
2018-03-21T19:08:07.657Z,3.40
2018-03-21T19:10:35.343Z,2.03
2018-03-21T19:13:04.019Z,1.87
2018-03-21T19:15:31.668Z,2.47
2018-03-21T19:17:59.770Z,2.17
2018-03-21T19:20:27.380Z,4.20
2018-03-21T19:22:55.050Z,2.90
2018-03-21T19:25:22.909Z,1.80
2018-03-21T19:27:50.740Z,2.67
2018-03-21T19:30:19.245Z,1.80
2018-03-21T19:32:51.374Z,4.23
2018-03-21T19:35:18.921Z,2.43
2018-03-21T19:37:46.559Z,1.53
2018-03-21T19:40:15.615Z,1.63
2018-03-21T19:42:43.631Z,1.83
2018-03-21T19:45:12.024Z,1.90
2018-03-21T19:47:39.651Z,3.23
2018-03-21T19:50:11.167Z,2.03
2018-03-21T19:52:38.859Z,4.83
2018-03-21T19:55:07.488Z,5.10
2018-03-21T19:57:42.928Z,2.13
2018-03-21T20:00:10.623Z,1.60
2018-03-21T20:02:38.256Z,4.30
2018-03-21T20:05:05.995Z,2.00
2018-03-21T20:07:36.723Z,1.97
2018-03-21T20:10:04.380Z,1.87
2018-03-21T20:12:32.542Z,1.87
2018-03-21T20:15:00.171Z,2.07
2018-03-21T20:17:27.808Z,2.73
2018-03-21T20:19:56.277Z,2.30
2018-03-21T20:22:24.090Z,1.83
2018-03-21T20:24:52.928Z,3.67
2018-03-21T20:27:21.400Z,1.53
2018-03-21T20:29:49.804Z,2.37
2018-03-21T20:32:18.854Z,1.70
2018-03-21T20:34:47.397Z,1.63
2018-03-21T20:37:15.506Z,2.20
2018-03-21T20:39:43.475Z,1.60
2018-03-21T20:42:13.501Z,2.00
2018-03-21T20:44:42.329Z,2.07
2018-03-21T20:47:11.005Z,1.60
2018-03-21T20:49:39.264Z,1.67
2018-03-21T20:52:06.974Z,2.27
2018-03-21T20:54:34.594Z,1.83
2018-03-21T20:57:02.342Z,1.73
2018-03-21T20:59:30.064Z,1.57
2018-03-21T21:01:58.015Z,1.73
2018-03-21T21:04:25.782Z,1.73
2018-03-21T21:06:53.539Z,1.40
2018-03-21T21:09:21.199Z,2.80
2018-03-21T21:11:48.906Z,4.13
2018-03-21T21:14:16.890Z,1.30
2018-03-21T21:16:44.618Z,2.73
2018-03-21T21:19:12.447Z,1.87
2018-03-21T21:21:40.043Z,1.77
2018-03-21T21:24:07.683Z,1.40
2018-03-21T21:26:35.356Z,1.73
2018-03-21T21:29:03.095Z,1.50
2018-03-21T21:31:30.896Z,2.50
2018-03-21T21:33:58.516Z,1.63
2018-03-21T21:36:26.324Z,1.70
2018-03-21T21:38:53.842Z,3.20
2018-03-21T21:41:21.423Z,2.40
2018-03-21T21:43:49.684Z,1.90
2018-03-21T21:46:17.232Z,1.70
2018-03-21T21:48:44.873Z,2.33
2018-03-21T21:51:12.606Z,2.30
2018-03-21T21:53:40.282Z,2.53
2018-03-21T21:56:08.723Z,1.70
2018-03-21T21:58:36.357Z,1.77
2018-03-21T22:01:04.042Z,1.70
2018-03-21T22:03:31.682Z,1.77
2018-03-21T22:05:59.603Z,1.80
2018-03-21T22:08:27.536Z,3.13
2018-03-21T22:10:55.444Z,2.10
2018-03-21T22:13:23.835Z,2.17
2018-03-21T22:15:52.298Z,1.97
2018-03-21T22:18:20.532Z,1.60
2018-03-21T22:20:48.244Z,1.80
2018-03-21T22:23:16.311Z,1.93
2018-03-21T22:25:44.603Z,1.87
2018-03-21T22:28:12.146Z,1.70
2018-03-21T22:30:40.588Z,1.77
2018-03-21T22:33:08.283Z,1.77
2018-03-21T22:35:36.929Z,2.37
2018-03-21T22:38:04.674Z,1.53
2018-03-21T22:40:32.323Z,2.03
2018-03-21T22:42:59.883Z,1.50
2018-03-21T22:45:27.517Z,1.73
2018-03-21T22:47:55.998Z,1.60
2018-03-21T22:50:24.668Z,2.03
2018-03-21T22:52:52.495Z,3.00
2018-03-21T22:55:20.140Z,2.33
2018-03-21T22:57:47.814Z,1.70
2018-03-21T23:00:15.522Z,1.47
2018-03-21T23:02:44.067Z,1.93
2018-03-21T23:05:11.624Z,1.80
2018-03-21T23:07:40.156Z,1.70
2018-03-21T23:10:08.523Z,3.13
2018-03-21T23:12:36.673Z,1.73
2018-03-21T23:15:04.332Z,1.60
2018-03-21T23:17:32.004Z,3.43
2018-03-21T23:19:59.714Z,2.00
2018-03-21T23:22:27.662Z,2.10
2018-03-21T23:24:56.203Z,1.73
2018-03-21T23:27:23.835Z,1.60
2018-03-21T23:29:51.535Z,2.47
2018-03-21T23:32:19.302Z,1.70
2018-03-21T23:34:46.959Z,1.77
2018-03-21T23:37:14.709Z,2.30
2018-03-21T23:39:42.278Z,2.00
2018-03-21T23:42:09.997Z,2.30
2018-03-21T23:44:37.932Z,1.93
2018-03-21T23:47:05.538Z,1.87
2018-03-21T23:49:33.206Z,1.70
2018-03-21T23:52:00.920Z,1.70
2018-03-21T23:54:28.589Z,2.70
2018-03-21T23:56:57.045Z,1.67
2018-03-21T23:59:25.012Z,2.13
